createdAt,value
2018-05-29T00:02:51.874Z,22.20
2018-05-29T00:05:54.444Z,22.20
2018-05-29T00:08:57.207Z,22.20
2018-05-29T00:12:00.566Z,22.10
2018-05-29T00:15:03.494Z,22.10
2018-05-29T00:18:06.084Z,22.10
2018-05-29T00:21:09.437Z,22.00
2018-05-29T00:24:12.189Z,22.00
2018-05-29T00:27:14.875Z,22.00
2018-05-29T00:30:17.519Z,22.00
2018-05-29T00:33:20.163Z,21.90
2018-05-29T00:36:23.544Z,21.90
2018-05-29T00:39:26.148Z,21.90
2018-05-29T00:42:28.777Z,21.90
2018-05-29T00:45:32.136Z,21.80
2018-05-29T00:48:34.885Z,21.80
2018-05-29T00:51:37.681Z,21.80
2018-05-29T00:54:40.344Z,21.70
2018-05-29T00:57:43.075Z,21.70
2018-05-29T01:00:45.681Z,21.60
2018-05-29T01:03:48.261Z,21.60
2018-05-29T01:06:51.827Z,21.70
2018-05-29T01:09:55.023Z,21.70
2018-05-29T01:12:57.626Z,21.70
2018-05-29T01:16:00.226Z,21.60
2018-05-29T01:22:19.958Z,21.60
2018-05-29T01:25:22.595Z,21.60
2018-05-29T01:28:25.223Z,21.70
2018-05-29T01:31:28.605Z,21.60
2018-05-29T01:34:31.219Z,21.50
2018-05-29T01:37:33.825Z,21.50
2018-05-29T01:40:36.399Z,21.50
2018-05-29T01:43:39.032Z,21.50
2018-05-29T01:46:42.378Z,21.50
2018-05-29T01:49:44.971Z,21.50
2018-05-29T01:52:47.543Z,21.50
2018-05-29T01:55:50.156Z,21.40
2018-05-29T01:58:52.757Z,21.30
2018-05-29T02:01:55.351Z,21.20
2018-05-29T02:04:57.924Z,21.20
2018-05-29T02:08:00.624Z,21.20
2018-05-29T02:11:04.002Z,21.20
2018-05-29T02:14:09.346Z,21.20
2018-05-29T02:17:12.155Z,21.20
2018-05-29T02:20:15.557Z,21.20
2018-05-29T02:23:18.180Z,21.20
2018-05-29T02:26:20.766Z,21.30
2018-05-29T02:29:23.363Z,21.30
2018-05-29T02:32:25.977Z,21.30
2018-05-29T02:35:29.337Z,21.30
2018-05-29T02:38:31.966Z,21.30
2018-05-29T02:41:35.474Z,21.30
2018-05-29T02:44:38.817Z,21.30
2018-05-29T02:47:41.436Z,21.30
2018-05-29T02:50:44.031Z,21.30
2018-05-29T02:53:46.630Z,21.30
2018-05-29T02:56:49.260Z,21.30
2018-05-29T02:59:51.853Z,21.30
2018-05-29T03:02:54.488Z,21.30
2018-05-29T03:05:57.076Z,21.20
2018-05-29T03:08:59.747Z,21.20
2018-05-29T03:12:02.330Z,21.20
2018-05-29T03:15:04.987Z,21.20
2018-05-29T03:18:08.363Z,21.20
2018-05-29T03:21:11.007Z,21.20
2018-05-29T03:24:13.598Z,21.20
2018-05-29T03:27:16.190Z,21.20
2018-05-29T03:30:18.775Z,21.10
2018-05-29T03:33:21.379Z,21.00
2018-05-29T03:36:23.981Z,20.90
2018-05-29T03:39:28.046Z,20.90
2018-05-29T03:42:30.632Z,20.90
2018-05-29T03:45:33.223Z,20.80
2018-05-29T03:48:35.832Z,20.80
2018-05-29T03:51:38.480Z,20.70
2018-05-29T03:54:41.088Z,20.80
2018-05-29T03:57:43.690Z,20.80
2018-05-29T04:00:46.276Z,20.80
2018-05-29T04:03:49.643Z,20.90
2018-05-29T04:06:52.248Z,20.90
2018-05-29T04:09:55.781Z,20.90
2018-05-29T04:12:58.390Z,20.80
2018-05-29T04:16:00.972Z,20.80
2018-05-29T04:19:03.581Z,20.90
2018-05-29T04:22:06.337Z,20.90
2018-05-29T04:25:09.859Z,21.00
2018-05-29T04:28:13.502Z,21.00
2018-05-29T04:31:17.010Z,21.10
2018-05-29T04:34:20.386Z,21.20
2018-05-29T04:37:23.817Z,21.20
2018-05-29T04:40:27.179Z,21.40
2018-05-29T04:43:29.765Z,21.30
2018-05-29T04:46:32.389Z,21.50
2018-05-29T04:49:35.048Z,21.50
2018-05-29T04:52:37.600Z,21.60
2018-05-29T04:55:40.235Z,21.70
2018-05-29T04:58:42.842Z,21.80
2018-05-29T05:01:45.605Z,21.90
2018-05-29T05:04:48.181Z,21.80
2018-05-29T05:07:50.864Z,21.80
2018-05-29T05:10:53.455Z,21.80
2018-05-29T05:13:56.186Z,21.90
2018-05-29T05:16:58.793Z,22.00
2018-05-29T05:20:01.396Z,22.20
2018-05-29T05:23:04.047Z,22.50
2018-05-29T05:26:06.648Z,22.80
2018-05-29T05:29:09.211Z,23.20
2018-05-29T05:32:11.807Z,23.50
2018-05-29T05:35:14.520Z,23.70
2018-05-29T05:38:17.290Z,23.80
2018-05-29T05:41:19.883Z,23.80
2018-05-29T05:44:22.504Z,23.90
2018-05-29T05:47:25.079Z,24.10
2018-05-29T05:50:28.010Z,24.20
2018-05-29T05:53:31.353Z,24.60
2018-05-29T05:56:34.118Z,24.60
2018-05-29T05:59:36.960Z,24.90
2018-05-29T06:02:39.711Z,25.10
2018-05-29T06:05:42.274Z,25.30
2018-05-29T06:08:45.451Z,25.60
2018-05-29T06:11:48.127Z,25.80
2018-05-29T06:14:50.757Z,25.80
2018-05-29T06:17:53.377Z,25.60
2018-05-29T06:20:55.979Z,25.60
2018-05-29T06:23:58.559Z,25.80
2018-05-29T06:27:01.897Z,26.70
2018-05-29T06:30:04.681Z,26.70
2018-05-29T06:33:07.263Z,26.90
2018-05-29T06:36:09.851Z,27.00
2018-05-29T06:39:12.437Z,27.30
2018-05-29T06:42:15.073Z,27.70
2018-05-29T06:45:18.613Z,27.60
2018-05-29T06:48:21.252Z,27.60
2018-05-29T06:51:23.835Z,27.70
2018-05-29T06:54:26.487Z,27.70
2018-05-29T06:57:29.080Z,28.20
2018-05-29T07:00:31.710Z,28.30
2018-05-29T07:03:34.469Z,28.60
2018-05-29T07:06:37.049Z,29.00
2018-05-29T07:09:39.621Z,29.10
2018-05-29T07:12:42.653Z,29.30
2018-05-29T07:15:45.231Z,29.00
2018-05-29T07:18:48.020Z,28.80
2018-05-29T07:21:50.631Z,29.00
2018-05-29T07:24:53.220Z,29.40
2018-05-29T07:27:55.854Z,30.70
2018-05-29T07:30:58.544Z,32.00
2018-05-29T07:34:01.135Z,33.40
2018-05-29T07:37:03.746Z,34.70
2018-05-29T07:40:06.371Z,35.60
2018-05-29T07:43:09.115Z,36.00
2018-05-29T07:46:11.697Z,35.70
2018-05-29T07:49:14.451Z,35.90
2018-05-29T07:52:17.233Z,35.70
2018-05-29T07:55:19.823Z,35.50
2018-05-29T07:58:22.439Z,35.20
2018-05-29T08:01:25.042Z,34.70
2018-05-29T08:04:27.700Z,34.60
2018-05-29T08:07:30.304Z,34.40
2018-05-29T08:10:32.999Z,34.30
2018-05-29T08:13:35.717Z,34.20
2018-05-29T08:16:38.325Z,34.00
2018-05-29T08:19:41.081Z,33.80
2018-05-29T08:22:43.833Z,33.40
2018-05-29T08:25:46.457Z,33.20
2018-05-29T08:28:49.030Z,33.00
2018-05-29T08:31:51.623Z,32.60
2018-05-29T08:34:54.236Z,32.40
2018-05-29T08:37:56.871Z,31.90
2018-05-29T08:40:59.450Z,31.70
2018-05-29T08:44:02.058Z,31.70
2018-05-29T08:47:04.660Z,31.90
2018-05-29T08:50:07.265Z,31.80
2018-05-29T08:53:10.271Z,31.60
2018-05-29T08:56:13.698Z,31.90
2018-05-29T08:59:16.398Z,32.00
2018-05-29T09:02:19.274Z,32.00
2018-05-29T09:05:21.878Z,32.00
2018-05-29T09:08:24.500Z,32.10
2018-05-29T09:11:27.112Z,32.10
2018-05-29T09:14:30.618Z,32.10
2018-05-29T09:17:33.204Z,32.00
2018-05-29T09:20:35.867Z,32.10
2018-05-29T09:23:38.551Z,32.20
2018-05-29T09:26:42.167Z,30.50
2018-05-29T09:29:44.876Z,30.50
2018-05-29T09:32:47.422Z,30.50
2018-05-29T09:35:50.833Z,30.20
2018-05-29T09:38:53.461Z,30.20
2018-05-29T09:41:56.095Z,30.40
2018-05-29T09:44:58.673Z,30.70
2018-05-29T09:48:02.240Z,30.30
2018-05-29T09:51:04.836Z,30.30
2018-05-29T09:54:07.509Z,30.30
2018-05-29T09:57:10.119Z,29.90
2018-05-29T10:00:12.736Z,29.60
2018-05-29T10:03:15.327Z,29.30
2018-05-29T10:06:17.991Z,29.20
2018-05-29T10:09:20.676Z,29.30
2018-05-29T10:12:23.275Z,29.50
2018-05-29T10:15:25.877Z,30.00
2018-05-29T10:18:28.467Z,30.30
2018-05-29T10:21:31.207Z,30.50
2018-05-29T10:24:33.871Z,30.60
2018-05-29T10:27:36.468Z,30.30
2018-05-29T10:30:39.035Z,30.40
2018-05-29T10:33:41.662Z,30.60
2018-05-29T10:36:44.422Z,30.70
2018-05-29T10:39:47.134Z,30.40
2018-05-29T10:42:49.725Z,30.40
2018-05-29T10:45:52.347Z,30.40
2018-05-29T10:48:55.737Z,30.40
2018-05-29T10:51:59.127Z,29.60
2018-05-29T10:55:01.728Z,29.60
2018-05-29T10:58:04.437Z,29.50
2018-05-29T11:01:07.657Z,29.70
2018-05-29T11:04:10.300Z,29.50
2018-05-29T11:07:13.706Z,29.20
2018-05-29T11:10:17.134Z,29.20
2018-05-29T11:13:20.135Z,29.10
2018-05-29T11:16:22.734Z,28.70
2018-05-29T11:19:25.369Z,28.60
2018-05-29T11:22:28.000Z,28.60
2018-05-29T11:25:30.617Z,28.60
2018-05-29T11:28:33.216Z,28.40
2018-05-29T11:31:35.824Z,28.20
2018-05-29T11:34:38.406Z,28.00
2018-05-29T11:37:40.987Z,28.10
2018-05-29T11:40:43.592Z,28.30
2018-05-29T11:43:46.229Z,28.50
2018-05-29T11:46:48.831Z,28.30
2018-05-29T11:49:51.449Z,28.30
2018-05-29T11:52:54.387Z,28.50
2018-05-29T11:55:56.989Z,28.50
2018-05-29T11:58:59.755Z,28.60
2018-05-29T12:02:02.342Z,28.50
2018-05-29T12:05:05.145Z,28.40
2018-05-29T12:08:07.750Z,28.20
2018-05-29T12:11:10.413Z,28.10
2018-05-29T12:14:13.243Z,28.00
2018-05-29T12:17:16.619Z,27.90
2018-05-29T12:20:19.381Z,27.80
2018-05-29T12:23:22.035Z,27.70
2018-05-29T12:26:24.637Z,27.60
2018-05-29T12:29:27.431Z,27.50
2018-05-29T12:32:30.405Z,27.50
2018-05-29T12:35:33.089Z,27.60
2018-05-29T12:38:35.770Z,27.60
2018-05-29T12:41:38.369Z,27.50
2018-05-29T12:44:41.046Z,27.60
2018-05-29T12:47:43.810Z,27.60
2018-05-29T12:50:47.246Z,27.60
2018-05-29T12:53:49.860Z,27.50
2018-05-29T12:56:52.516Z,27.60
2018-05-29T12:59:55.100Z,27.50
2018-05-29T13:02:57.727Z,27.40
2018-05-29T13:06:00.338Z,27.40
2018-05-29T13:09:03.436Z,27.30
2018-05-29T13:12:06.042Z,27.20
2018-05-29T13:15:08.679Z,27.30
2018-05-29T13:18:11.302Z,27.30
2018-05-29T13:21:13.924Z,27.30
2018-05-29T13:24:16.563Z,27.20
2018-05-29T13:27:19.150Z,27.10
2018-05-29T13:30:21.766Z,27.10
2018-05-29T13:33:24.435Z,27.00
2018-05-29T13:36:27.037Z,26.80
2018-05-29T13:39:29.757Z,26.60
2018-05-29T13:42:32.394Z,26.50
2018-05-29T13:45:34.999Z,26.40
2018-05-29T13:48:38.373Z,26.20
2018-05-29T13:51:41.018Z,26.20
2018-05-29T13:54:43.692Z,26.10
2018-05-29T13:57:46.311Z,26.00
2018-05-29T14:00:48.911Z,25.80
2018-05-29T14:03:51.512Z,25.80
2018-05-29T14:06:55.065Z,25.60
2018-05-29T14:09:57.709Z,25.60
2018-05-29T14:13:01.125Z,25.30
2018-05-29T14:16:03.913Z,25.30
2018-05-29T14:19:06.495Z,25.20
2018-05-29T14:22:09.127Z,25.20
2018-05-29T14:25:11.750Z,25.00
2018-05-29T14:28:15.368Z,24.80
2018-05-29T14:31:18.050Z,24.70
2018-05-29T14:34:20.674Z,24.70
2018-05-29T14:37:23.330Z,24.60
2018-05-29T14:40:25.974Z,24.50
2018-05-29T14:43:29.334Z,24.40
2018-05-29T14:46:32.084Z,24.30
2018-05-29T14:49:34.702Z,24.40
2018-05-29T14:52:37.454Z,24.40
2018-05-29T14:55:40.083Z,24.30
2018-05-29T14:58:42.733Z,24.10
2018-05-29T15:01:45.378Z,24.00
2018-05-29T15:04:48.924Z,23.90
2018-05-29T15:07:51.562Z,23.90
2018-05-29T15:10:54.914Z,23.40
2018-05-29T15:13:57.509Z,23.40
2018-05-29T15:17:00.096Z,23.40
2018-05-29T15:20:02.737Z,23.40
2018-05-29T15:23:05.361Z,23.60
2018-05-29T15:26:07.977Z,23.60
2018-05-29T15:29:10.626Z,23.70
2018-05-29T15:32:13.232Z,23.80
2018-05-29T15:35:16.870Z,23.80
2018-05-29T15:38:19.591Z,23.80
2018-05-29T15:41:22.218Z,23.60
2018-05-29T15:44:24.863Z,23.50
2018-05-29T15:47:28.397Z,23.30
2018-05-29T15:50:31.026Z,23.30
2018-05-29T15:53:33.606Z,23.20
2018-05-29T15:56:36.849Z,23.10
2018-05-29T15:59:40.230Z,23.00
2018-05-29T16:02:43.072Z,23.00
2018-05-29T16:05:45.670Z,23.10
2018-05-29T16:08:48.339Z,23.20
2018-05-29T16:11:51.002Z,23.20
2018-05-29T16:14:54.397Z,23.40
2018-05-29T16:17:56.977Z,23.40
2018-05-29T16:21:00.622Z,23.60
2018-05-29T16:24:03.233Z,23.50
2018-05-29T16:27:05.872Z,23.60
2018-05-29T16:30:08.560Z,23.60
2018-05-29T16:33:11.177Z,23.50
2018-05-29T16:36:13.743Z,23.50
2018-05-29T16:39:16.350Z,23.50
2018-05-29T16:42:19.143Z,23.50
2018-05-29T16:45:21.888Z,23.60
2018-05-29T16:48:24.478Z,23.50
2018-05-29T16:51:27.084Z,23.60
2018-05-29T16:54:29.685Z,23.70
2018-05-29T16:57:32.412Z,23.70
2018-05-29T17:00:35.242Z,23.70
2018-05-29T17:03:37.822Z,23.70
2018-05-29T17:06:40.416Z,23.70
2018-05-29T17:09:43.266Z,23.70
2018-05-29T17:12:45.854Z,23.70
2018-05-29T17:15:48.503Z,23.60
2018-05-29T17:18:51.949Z,23.60
2018-05-29T17:21:54.615Z,23.60
2018-05-29T17:24:57.264Z,23.50
2018-05-29T17:27:59.892Z,23.30
2018-05-29T17:31:02.540Z,23.20
2018-05-29T17:34:05.176Z,23.00
2018-05-29T17:37:07.797Z,22.80
2018-05-29T17:40:10.501Z,22.60
2018-05-29T17:43:13.088Z,22.40
2018-05-29T17:46:15.878Z,22.00
2018-05-29T17:49:18.652Z,21.70
2018-05-29T17:52:21.845Z,21.60
2018-05-29T17:55:25.334Z,21.50
2018-05-29T17:58:28.404Z,21.40
2018-05-29T18:01:31.397Z,21.40
2018-05-29T18:04:35.014Z,21.40
2018-05-29T18:07:37.582Z,21.40
2018-05-29T18:10:40.820Z,21.40
2018-05-29T18:13:43.541Z,21.40
2018-05-29T18:16:46.381Z,21.40
2018-05-29T18:19:49.692Z,21.50
2018-05-29T18:22:52.786Z,21.40
2018-05-29T18:25:55.856Z,21.30
2018-05-29T18:28:58.633Z,21.30
2018-05-29T18:32:01.292Z,21.30
2018-05-29T18:35:04.033Z,21.20
2018-05-29T18:38:06.833Z,21.10
2018-05-29T18:41:09.422Z,21.00
2018-05-29T18:44:12.190Z,21.10
2018-05-29T18:47:14.853Z,20.90
2018-05-29T18:50:17.604Z,20.90
2018-05-29T18:53:20.419Z,20.80
2018-05-29T18:56:23.792Z,20.80
2018-05-29T18:59:26.425Z,20.80
2018-05-29T19:02:29.328Z,20.80
2018-05-29T19:05:31.943Z,20.70
2018-05-29T19:08:34.567Z,20.70
2018-05-29T19:11:37.186Z,20.70
2018-05-29T19:14:39.878Z,20.60
2018-05-29T19:17:42.524Z,20.60
2018-05-29T19:20:45.204Z,20.70
2018-05-29T19:23:48.819Z,20.80
2018-05-29T19:26:51.502Z,20.70
2018-05-29T19:29:54.123Z,20.80
2018-05-29T19:32:56.867Z,20.80
2018-05-29T19:35:59.478Z,20.80
2018-05-29T19:39:02.109Z,20.80
2018-05-29T19:42:05.544Z,20.80
2018-05-29T19:45:08.284Z,20.80
2018-05-29T19:48:11.118Z,20.80
2018-05-29T19:51:13.825Z,20.70
2018-05-29T19:54:16.495Z,20.70
2018-05-29T19:57:19.111Z,20.70
2018-05-29T20:00:22.573Z,20.70
2018-05-29T20:03:30.996Z,20.70
2018-05-29T20:06:33.687Z,20.70
2018-05-29T20:09:36.251Z,20.70
2018-05-29T20:12:38.908Z,20.70
2018-05-29T20:15:41.553Z,20.70
2018-05-29T20:18:45.123Z,20.70
2018-05-29T20:21:47.766Z,20.70
2018-05-29T20:24:50.392Z,20.70
2018-05-29T20:27:53.046Z,20.70
2018-05-29T20:30:56.465Z,20.70
2018-05-29T20:33:59.050Z,20.70
2018-05-29T20:37:01.755Z,20.70
2018-05-29T20:40:04.608Z,20.70
2018-05-29T20:43:07.990Z,20.40
2018-05-29T20:46:10.623Z,20.40
2018-05-29T20:49:13.292Z,20.40
2018-05-29T20:52:15.919Z,20.10
2018-05-29T20:55:18.588Z,20.00
2018-05-29T20:58:21.306Z,19.90
2018-05-29T21:01:23.945Z,19.90
2018-05-29T21:04:26.531Z,19.90
2018-05-29T21:07:29.127Z,19.90
2018-05-29T21:10:31.745Z,19.90
2018-05-29T21:13:34.342Z,19.90
2018-05-29T21:16:37.142Z,19.90
2018-05-29T21:19:41.790Z,19.90
2018-05-29T21:22:44.412Z,20.00
2018-05-29T21:25:47.236Z,19.90
2018-05-29T21:28:49.968Z,19.90
2018-05-29T21:31:52.768Z,19.90
2018-05-29T21:34:55.505Z,19.90
2018-05-29T21:37:58.267Z,19.90
2018-05-29T21:41:01.645Z,20.00
2018-05-29T21:44:05.115Z,20.00
2018-05-29T21:47:07.727Z,19.90
2018-05-29T21:50:10.312Z,20.00
2018-05-29T21:53:12.926Z,20.00
2018-05-29T21:56:15.593Z,20.00
2018-05-29T21:59:19.928Z,20.10
2018-05-29T22:02:22.529Z,20.10
2018-05-29T22:05:26.021Z,20.10
2018-05-29T22:08:28.639Z,20.10
2018-05-29T22:11:31.228Z,20.10
2018-05-29T22:14:33.967Z,20.10
2018-05-29T22:17:36.568Z,20.00
2018-05-29T22:20:39.380Z,20.00
2018-05-29T22:23:42.024Z,20.00
2018-05-29T22:26:44.725Z,20.00
2018-05-29T22:29:47.340Z,20.00
2018-05-29T22:32:49.959Z,20.10
2018-05-29T22:35:52.746Z,20.10
2018-05-29T22:38:56.155Z,20.10
2018-05-29T22:41:58.760Z,20.10
2018-05-29T22:45:01.356Z,20.10
2018-05-29T22:48:03.990Z,20.10
2018-05-29T22:51:06.571Z,20.10
2018-05-29T22:54:09.925Z,20.10
2018-05-29T22:57:12.539Z,20.10
2018-05-29T23:00:15.184Z,20.10
2018-05-29T23:03:17.835Z,20.00
2018-05-29T23:06:20.455Z,20.00
2018-05-29T23:09:23.051Z,20.00
2018-05-29T23:12:25.664Z,20.00
2018-05-29T23:15:28.267Z,19.90
2018-05-29T23:18:30.907Z,19.90
2018-05-29T23:21:33.515Z,19.80
2018-05-29T23:24:36.135Z,19.70
2018-05-29T23:27:38.732Z,19.70
2018-05-29T23:30:41.374Z,19.60
2018-05-29T23:33:43.955Z,19.60
2018-05-29T23:36:46.608Z,19.50
2018-05-29T23:39:49.172Z,19.50
2018-05-29T23:42:52.550Z,19.50
2018-05-29T23:45:55.136Z,19.40
2018-05-29T23:48:57.748Z,19.40
2018-05-29T23:52:00.323Z,19.40
2018-05-29T23:55:04.417Z,19.20
2018-05-29T23:58:06.995Z,19.30
